DTMB/MIR METAR and TAF weather

Enter ICAO airport designator
Station Type Date Time Source
DTMB METAR 2019/12/10 03:00 UTC NOAA

DTMB 100300Z 24010KT 8000 NSC 12/09 Q1016 NOSIG


Station Type Date Time Source
DTMB Decoded METAR 2019/12/10 03:00 UTC NOAA

Habib Bourguiba , Tunisia (DTMB) 35-46N 010-45E
Dec 09, 2019 - 10:00 PM EST / 2019.12.10 0300 UTC
Wind: from the WSW (240 degrees) at 12 MPH (10 KT):0
Visibility: 4 mile(s):0
Temperature: 53 F (12 C)
Dew Point: 48 F (9 C)
Relative Humidity: 81%
Pressure (altimeter): 30.00 in. Hg (1016 hPa)
ob: DTMB 100300Z 24010KT 8000 NSC 12/09 Q1016 NOSIG
cycle: 3

Station Type Date Time Source
DTMB TAF 2019/12/10 00:00 UTC NOAA

TAF TAF DTMB 092300Z 1000/1024 28010KT 8000 SCT040
BECMG 1002/1004 28018KT
BECMG 1008/1010 30020G35KT 9999 SCT020 SCT030 PROB40
TEMPO 1017/1024 4000 -TSRA FEW026CB

Example: see airport list